createdAt,value
2018-06-18T00:00:34.438Z,10.57
2018-06-18T00:03:04.497Z,12.57
2018-06-18T00:05:34.782Z,10.77
2018-06-18T00:08:05.698Z,14.40
2018-06-18T00:10:36.222Z,11.30
2018-06-18T00:13:06.569Z,11.87
2018-06-18T00:15:37.146Z,12.30
2018-06-18T00:18:07.498Z,13.43
2018-06-18T00:20:37.576Z,10.17
2018-06-18T00:23:08.278Z,12.90
2018-06-18T00:25:38.565Z,12.30
2018-06-18T00:28:08.938Z,12.13
2018-06-18T00:30:39.496Z,11.83
2018-06-18T00:33:10.254Z,15.13
2018-06-18T00:35:40.778Z,16.80
2018-06-18T00:38:11.410Z,15.10
2018-06-18T00:40:42.099Z,11.50
2018-06-18T00:43:12.518Z,11.30
2018-06-18T00:45:43.111Z,10.23
2018-06-18T00:48:13.929Z,10.17
2018-06-18T00:50:44.422Z,12.50
2018-06-18T00:53:14.801Z,12.13
2018-06-18T00:55:57.368Z,10.17
2018-06-18T00:58:27.962Z,13.77
2018-06-18T01:00:58.421Z,14.27
2018-06-18T01:03:29.042Z,10.90
2018-06-18T01:05:59.858Z,15.97
2018-06-18T01:08:30.465Z,17.70
2018-06-18T01:11:01.285Z,15.00
2018-06-18T01:13:31.786Z,13.33
2018-06-18T01:16:02.246Z,14.63
2018-06-18T01:18:34.064Z,11.27
2018-06-18T01:21:04.533Z,14.37
2018-06-18T01:23:54.115Z,11.63
2018-06-18T01:26:24.289Z,14.33
2018-06-18T01:28:54.715Z,14.20
2018-06-18T01:31:26.040Z,12.67
2018-06-18T01:33:59.534Z,15.73
2018-06-18T01:36:29.974Z,16.37
2018-06-18T01:39:00.315Z,13.00
2018-06-18T01:41:30.678Z,9.53
2018-06-18T01:44:01.139Z,14.03
2018-06-18T01:46:31.638Z,14.03
2018-06-18T01:49:02.008Z,14.47
2018-06-18T01:51:32.577Z,13.53
2018-06-18T01:54:03.333Z,14.03
2018-06-18T01:56:33.274Z,17.00
2018-06-18T01:59:03.390Z,17.50
2018-06-18T02:01:33.783Z,13.83
2018-06-18T02:04:04.268Z,10.43
2018-06-18T02:06:34.834Z,10.43
2018-06-18T02:09:09.307Z,14.13
2018-06-18T02:11:39.531Z,17.63
2018-06-18T02:14:10.930Z,14.00
2018-06-18T02:16:41.249Z,14.73
2018-06-18T02:19:11.903Z,11.10
2018-06-18T02:21:42.355Z,12.13
2018-06-18T02:24:13.217Z,9.07
2018-06-18T02:26:43.626Z,17.70
2018-06-18T02:29:19.092Z,14.23
2018-06-18T02:31:54.667Z,14.90
2018-06-18T02:34:30.438Z,20.00
2018-06-18T02:37:05.829Z,13.23
2018-06-18T02:39:40.865Z,11.37
2018-06-18T02:42:11.408Z,13.43
2018-06-18T02:44:42.383Z,14.13
2018-06-18T02:47:12.668Z,12.43
2018-06-18T02:49:43.063Z,15.57
2018-06-18T02:52:13.585Z,13.23
2018-06-18T02:54:43.828Z,12.20
2018-06-18T02:57:15.031Z,11.47
2018-06-18T02:59:45.841Z,13.30
2018-06-18T03:02:16.518Z,20.30
2018-06-18T03:04:47.076Z,18.23
2018-06-18T03:07:17.571Z,13.60
2018-06-18T03:09:48.019Z,15.43
2018-06-18T03:12:18.536Z,20.53
2018-06-18T03:14:50.610Z,11.97
2018-06-18T03:17:20.989Z,16.63
2018-06-18T03:19:56.695Z,9.33
2018-06-18T03:22:33.016Z,13.23
2018-06-18T03:25:08.931Z,14.33
2018-06-18T03:27:44.767Z,13.23
2018-06-18T03:30:15.095Z,9.97
2018-06-18T03:32:45.598Z,17.63
2018-06-18T03:35:16.042Z,13.43
2018-06-18T03:37:46.817Z,11.70
2018-06-18T03:40:17.327Z,8.90
2018-06-18T03:42:47.830Z,12.57
2018-06-18T03:45:26.243Z,10.60
2018-06-18T03:47:57.675Z,11.30
2018-06-18T03:50:28.791Z,13.00
2018-06-18T03:52:59.303Z,11.27
2018-06-18T03:55:32.742Z,15.57
2018-06-18T03:58:08.786Z,13.60
2018-06-18T04:01:54.359Z,14.27
2018-06-18T04:04:30.121Z,11.30
2018-06-18T04:07:06.038Z,11.00
2018-06-18T04:09:42.168Z,9.50
2018-06-18T04:12:13.147Z,11.10
2018-06-18T04:14:43.590Z,9.70
2018-06-18T04:17:14.525Z,11.97
2018-06-18T04:19:45.339Z,13.73
2018-06-18T04:22:15.877Z,11.20
2018-06-18T04:24:46.847Z,12.40
2018-06-18T04:27:17.507Z,10.97
2018-06-18T04:29:48.111Z,14.63
2018-06-18T04:32:19.263Z,12.40
2018-06-18T04:34:52.915Z,17.67
2018-06-18T04:37:23.297Z,19.10
2018-06-18T04:39:54.020Z,11.63
2018-06-18T04:42:30.127Z,18.90
2018-06-18T04:45:06.244Z,21.30
2018-06-18T04:47:41.831Z,13.67
2018-06-18T04:50:17.340Z,14.50
2018-06-18T04:52:48.193Z,16.00
2018-06-18T04:55:21.062Z,15.10
2018-06-18T04:57:51.840Z,13.60
2018-06-18T05:00:45.626Z,18.20
2018-06-18T05:03:16.037Z,16.30
2018-06-18T05:05:46.542Z,15.67
2018-06-18T05:08:34.223Z,18.00
2018-06-18T05:11:04.803Z,13.60
2018-06-18T05:13:35.538Z,15.40
2018-06-18T05:16:06.878Z,13.47
2018-06-18T05:18:37.562Z,20.13
2018-06-18T05:21:08.070Z,14.90
2018-06-18T05:23:39.538Z,13.80
2018-06-18T05:26:10.107Z,13.27
2018-06-18T05:28:40.754Z,22.43
2018-06-18T05:31:11.159Z,17.40
2018-06-18T05:33:41.717Z,16.90
2018-06-18T05:36:12.141Z,13.13
2018-06-18T05:38:43.152Z,14.90
2018-06-18T05:41:13.693Z,12.03
2018-06-18T05:43:44.096Z,23.60
2018-06-18T05:46:14.818Z,13.53
2018-06-18T05:48:46.589Z,12.93
2018-06-18T05:51:19.202Z,11.97
2018-06-18T05:53:49.718Z,12.43
2018-06-18T05:56:20.349Z,12.87
2018-06-18T05:58:50.952Z,15.70
2018-06-18T06:01:21.650Z,11.10
2018-06-18T06:03:51.975Z,11.13
2018-06-18T06:06:22.695Z,15.80
2018-06-18T06:08:53.115Z,13.23
2018-06-18T06:11:23.663Z,13.77
2018-06-18T06:13:54.433Z,14.07
2018-06-18T06:16:25.212Z,15.00
2018-06-18T06:18:56.343Z,12.40
2018-06-18T06:21:26.787Z,17.23
2018-06-18T06:23:57.383Z,14.60
2018-06-18T06:26:27.710Z,17.83
2018-06-18T06:29:00.410Z,18.17
2018-06-18T06:31:31.162Z,16.20
2018-06-18T06:34:02.255Z,16.00
2018-06-18T06:36:32.859Z,13.07
2018-06-18T06:39:03.639Z,23.50
2018-06-18T06:41:34.355Z,12.67
2018-06-18T06:44:04.709Z,12.13
2018-06-18T06:46:35.180Z,16.60
2018-06-18T06:49:05.979Z,15.40
2018-06-18T06:51:36.960Z,14.90
2018-06-18T06:54:07.927Z,23.53
2018-06-18T06:56:38.466Z,28.27
2018-06-18T06:59:09.102Z,12.33
2018-06-18T07:01:39.431Z,20.47
2018-06-18T07:04:10.558Z,18.23
2018-06-18T07:06:41.078Z,14.33
2018-06-18T07:09:12.626Z,11.83
2018-06-18T07:11:43.075Z,18.90
2018-06-18T07:14:13.523Z,21.23
2018-06-18T07:16:44.421Z,13.80
2018-06-18T07:19:15.192Z,15.10
2018-06-18T07:21:45.807Z,23.40
2018-06-18T07:24:16.330Z,14.03
2018-06-18T07:26:47.219Z,20.10
2018-06-18T07:29:17.829Z,12.93
2018-06-18T07:31:48.693Z,12.97
2018-06-18T07:34:19.497Z,19.30
2018-06-18T07:36:50.063Z,15.33
2018-06-18T07:39:20.690Z,18.03
2018-06-18T07:41:51.201Z,16.57
2018-06-18T07:44:21.471Z,11.20
2018-06-18T07:46:52.390Z,14.30
2018-06-18T07:49:22.950Z,15.07
2018-06-18T07:51:53.288Z,16.60
2018-06-18T07:54:23.845Z,18.80
2018-06-18T07:56:54.370Z,14.53
2018-06-18T07:59:25.084Z,19.27
2018-06-18T08:01:55.712Z,28.50
2018-06-18T08:04:27.730Z,15.30
2018-06-18T08:06:58.261Z,15.77
2018-06-18T08:09:28.679Z,19.53
2018-06-18T08:11:59.546Z,16.53
2018-06-18T08:14:29.911Z,12.93
2018-06-18T08:17:00.379Z,15.53
2018-06-18T08:19:31.006Z,22.53
2018-06-18T08:22:01.748Z,14.57
2018-06-18T08:24:32.178Z,14.50
2018-06-18T08:27:02.928Z,13.30
2018-06-18T08:29:33.407Z,13.90
2018-06-18T08:32:04.420Z,14.13
2018-06-18T08:34:35.030Z,12.00
2018-06-18T08:37:05.814Z,16.07
2018-06-18T08:39:36.614Z,15.97
2018-06-18T08:42:07.139Z,18.40
2018-06-18T08:44:37.665Z,15.60
2018-06-18T08:47:08.580Z,21.10
2018-06-18T08:49:44.756Z,18.23
2018-06-18T08:54:23.754Z,23.50
2018-06-18T08:56:59.355Z,14.97
2018-06-18T08:59:36.007Z,10.00
2018-06-18T09:02:06.321Z,13.30
2018-06-18T09:04:42.642Z,14.90
2018-06-18T09:07:17.031Z,11.37
2018-06-18T09:09:48.223Z,17.37
2018-06-18T09:12:18.599Z,13.17
2018-06-18T09:14:49.316Z,10.47
2018-06-18T09:17:20.189Z,9.23
2018-06-18T09:19:50.547Z,10.60
2018-06-18T09:22:20.910Z,14.33
2018-06-18T09:24:51.300Z,10.23
2018-06-18T09:27:21.950Z,13.60
2018-06-18T09:29:57.407Z,12.73
2018-06-18T09:32:27.909Z,14.43
2018-06-18T09:34:58.950Z,12.70
2018-06-18T09:37:29.596Z,13.60
2018-06-18T09:40:00.067Z,11.13
2018-06-18T09:42:30.597Z,13.40
2018-06-18T09:45:00.816Z,16.00
2018-06-18T09:47:31.563Z,14.10
2018-06-18T09:50:07.637Z,13.83
2018-06-18T09:52:43.583Z,14.23
2018-06-18T09:55:19.482Z,12.27
2018-06-18T09:57:55.970Z,11.33
2018-06-18T10:00:42.525Z,13.80
2018-06-18T10:03:12.869Z,9.43
2018-06-18T10:05:43.576Z,9.73
2018-06-18T10:08:14.227Z,12.40
2018-06-18T10:10:45.117Z,16.00
2018-06-18T10:13:15.045Z,13.03
2018-06-18T10:15:45.728Z,14.07
2018-06-18T10:18:16.435Z,14.60
2018-06-18T10:20:48.258Z,13.17
2018-06-18T10:23:19.339Z,13.27
2018-06-18T10:25:49.986Z,20.20
2018-06-18T10:28:21.109Z,14.27
2018-06-18T10:30:51.932Z,12.57
2018-06-18T10:33:27.478Z,19.70
2018-06-18T10:36:04.004Z,14.13
2018-06-18T10:38:40.350Z,10.70
2018-06-18T10:41:16.096Z,15.80
2018-06-18T10:43:46.883Z,15.43
2018-06-18T10:46:17.517Z,17.13
2018-06-18T10:48:48.243Z,13.93
2018-06-18T10:51:18.610Z,23.00
2018-06-18T10:53:49.178Z,23.63
2018-06-18T10:56:20.051Z,19.93
2018-06-18T10:58:50.910Z,13.67
2018-06-18T11:01:26.559Z,14.00
2018-06-18T11:03:57.045Z,19.03
2018-06-18T11:06:34.167Z,12.57
2018-06-18T11:09:07.160Z,15.50
2018-06-18T11:11:38.156Z,11.90
2018-06-18T11:14:08.945Z,12.40
2018-06-18T11:16:39.597Z,10.33
2018-06-18T11:19:16.921Z,11.97
2018-06-18T11:21:52.475Z,11.93
2018-06-18T11:24:27.996Z,12.20
2018-06-18T11:26:59.345Z,14.20
2018-06-18T11:29:29.634Z,13.70
2018-06-18T11:32:00.178Z,12.97
2018-06-18T11:34:30.439Z,14.93
2018-06-18T11:37:00.970Z,12.90
2018-06-18T11:39:31.403Z,13.77
2018-06-18T11:42:02.996Z,11.83
2018-06-18T11:44:33.627Z,14.87
2018-06-18T11:47:04.355Z,14.27
2018-06-18T11:49:35.003Z,16.03
2018-06-18T11:52:06.615Z,16.13
2018-06-18T11:54:37.311Z,13.27
2018-06-18T11:57:08.041Z,16.07
2018-06-18T11:59:43.383Z,12.70
2018-06-18T12:02:20.058Z,11.17
2018-06-18T12:04:56.488Z,11.93
2018-06-18T12:07:32.064Z,11.70
2018-06-18T12:10:02.730Z,15.50
2018-06-18T12:12:33.467Z,10.87
2018-06-18T12:15:03.919Z,13.37
2018-06-18T12:17:34.511Z,9.20
2018-06-18T12:20:04.561Z,16.10
2018-06-18T12:22:41.827Z,14.23
2018-06-18T12:25:14.147Z,14.93
2018-06-18T12:27:44.562Z,15.50
2018-06-18T12:30:14.979Z,11.03
2018-06-18T12:32:45.490Z,10.23
2018-06-18T12:35:16.220Z,13.00
2018-06-18T12:37:47.482Z,8.50
2018-06-18T12:40:18.178Z,16.53
2018-06-18T12:42:49.194Z,14.50
2018-06-18T12:45:25.901Z,12.77
2018-06-18T12:48:02.424Z,9.87
2018-06-18T12:50:39.878Z,10.10
2018-06-18T12:53:16.864Z,13.03
2018-06-18T12:55:52.236Z,10.77
2018-06-18T12:58:22.862Z,7.50
2018-06-18T13:00:53.613Z,7.03
2018-06-18T13:03:24.351Z,9.90
2018-06-18T13:05:55.166Z,5.10
2018-06-18T13:08:26.206Z,10.87
2018-06-18T13:10:56.333Z,8.93
2018-06-18T13:13:26.866Z,5.30
2018-06-18T13:15:56.879Z,5.90
2018-06-18T13:18:27.746Z,4.80
2018-06-18T13:20:58.518Z,5.60
2018-06-18T13:23:31.819Z,4.97
2018-06-18T13:26:02.347Z,4.80
2018-06-18T13:28:32.921Z,4.13
2018-06-18T13:31:03.938Z,3.80
2018-06-18T13:33:34.508Z,6.43
2018-06-18T13:36:06.427Z,5.47
2018-06-18T13:38:42.078Z,5.30
2018-06-18T13:41:18.076Z,6.90
2018-06-18T13:43:54.235Z,4.70
2018-06-18T13:46:30.118Z,4.97
2018-06-18T13:49:00.500Z,3.60
2018-06-18T13:51:30.635Z,3.50
2018-06-18T13:54:01.233Z,4.70
2018-06-18T13:56:32.030Z,4.63
2018-06-18T13:59:02.639Z,5.20
2018-06-18T14:01:33.828Z,6.07
2018-06-18T14:04:04.222Z,7.20
2018-06-18T14:06:35.030Z,3.40
2018-06-18T14:09:07.785Z,3.07
2018-06-18T14:11:38.397Z,3.63
2018-06-18T14:14:09.226Z,3.27
2018-06-18T14:16:39.597Z,4.30
2018-06-18T14:19:15.330Z,4.23
2018-06-18T14:21:55.769Z,4.77
2018-06-18T14:24:26.350Z,4.60
2018-06-18T14:26:56.724Z,5.67
2018-06-18T14:29:32.607Z,7.33
2018-06-18T14:32:03.282Z,8.90
2018-06-18T14:34:39.821Z,7.30
2018-06-18T14:37:16.948Z,9.27
2018-06-18T14:39:56.889Z,10.90
2018-06-18T14:42:27.802Z,11.10
2018-06-18T14:44:58.159Z,10.77
2018-06-18T14:47:28.854Z,10.30
2018-06-18T14:50:00.041Z,8.17
2018-06-18T14:52:30.620Z,7.40
2018-06-18T14:55:01.921Z,9.70
2018-06-18T14:57:32.354Z,9.60
2018-06-18T15:00:08.432Z,9.17
2018-06-18T15:02:38.993Z,11.07
2018-06-18T15:05:09.938Z,11.10
2018-06-18T15:07:40.119Z,10.40
2018-06-18T15:10:10.871Z,10.80
2018-06-18T15:12:52.353Z,12.57
2018-06-18T15:15:29.493Z,11.00
2018-06-18T15:18:00.051Z,13.90
2018-06-18T15:20:30.496Z,14.87
2018-06-18T15:23:03.613Z,12.80
2018-06-18T15:25:39.114Z,16.83
2018-06-18T15:28:09.715Z,13.30
2018-06-18T15:30:40.367Z,15.23
2018-06-18T15:33:11.190Z,15.90
2018-06-18T15:35:41.778Z,14.50
2018-06-18T15:38:12.353Z,16.23
2018-06-18T15:40:42.741Z,13.67
2018-06-18T15:43:13.256Z,12.67
2018-06-18T15:45:44.259Z,11.77
2018-06-18T15:48:15.146Z,13.00
2018-06-18T15:50:45.708Z,14.93
2018-06-18T15:53:16.624Z,11.40
2018-06-18T15:55:47.211Z,12.90
2018-06-18T15:58:19.306Z,13.50
2018-06-18T16:00:49.961Z,14.83
2018-06-18T16:03:34.446Z,12.80
2018-06-18T16:06:18.152Z,15.70
2018-06-18T16:08:50.962Z,13.27
2018-06-18T16:11:21.891Z,12.73
2018-06-18T16:13:51.895Z,12.27
2018-06-18T16:16:22.530Z,15.10
2018-06-18T16:18:52.987Z,11.63
2018-06-18T16:21:23.711Z,18.17
2018-06-18T16:23:54.016Z,13.13
2018-06-18T16:26:24.962Z,16.83
2018-06-18T16:28:55.815Z,13.20
2018-06-18T16:31:26.467Z,14.10
2018-06-18T16:33:57.210Z,11.73
2018-06-18T16:36:27.858Z,9.70
2018-06-18T16:38:58.894Z,12.17
2018-06-18T16:41:29.739Z,15.43
2018-06-18T16:44:00.398Z,14.30
2018-06-18T16:46:31.138Z,16.43
2018-06-18T16:49:01.622Z,13.40
2018-06-18T16:51:32.398Z,15.10
2018-06-18T16:54:02.461Z,14.47
2018-06-18T16:56:33.374Z,14.03
2018-06-18T16:59:04.090Z,14.27
2018-06-18T17:01:34.790Z,18.40
2018-06-18T17:04:05.837Z,12.53
2018-06-18T17:06:37.100Z,14.07
2018-06-18T17:09:09.586Z,13.80
2018-06-18T17:11:40.356Z,16.70
2018-06-18T17:14:11.142Z,14.93
2018-06-18T17:16:41.509Z,12.30
2018-06-18T17:19:12.172Z,14.63
2018-06-18T17:21:42.707Z,13.07
2018-06-18T17:24:23.494Z,12.00
2018-06-18T17:26:58.782Z,14.03
2018-06-18T17:29:29.650Z,13.50
2018-06-18T17:32:00.093Z,11.17
2018-06-18T17:34:30.660Z,13.17
2018-06-18T17:37:01.023Z,13.90
2018-06-18T17:39:32.799Z,12.47
2018-06-18T17:42:03.330Z,11.60
2018-06-18T17:44:34.114Z,12.47
2018-06-18T17:47:04.706Z,10.70
2018-06-18T17:49:35.406Z,12.47
2018-06-18T17:52:06.112Z,12.90
2018-06-18T17:54:37.195Z,17.40
2018-06-18T17:57:08.210Z,12.40
2018-06-18T17:59:38.843Z,13.67
2018-06-18T18:02:09.392Z,13.83
2018-06-18T18:04:42.447Z,10.60
2018-06-18T18:07:12.930Z,15.87
2018-06-18T18:09:44.146Z,10.93
2018-06-18T18:12:14.734Z,11.30
2018-06-18T18:14:45.676Z,9.37
2018-06-18T18:17:16.252Z,10.43
2018-06-18T18:19:47.518Z,11.70
2018-06-18T18:22:18.421Z,13.77
2018-06-18T18:24:49.920Z,11.93
2018-06-18T18:27:21.060Z,17.00
2018-06-18T18:29:51.542Z,12.90
2018-06-18T18:32:22.083Z,9.63
2018-06-18T18:34:53.782Z,11.50
2018-06-18T18:37:24.327Z,11.00
2018-06-18T18:39:55.345Z,10.37
2018-06-18T18:42:25.972Z,11.93
2018-06-18T18:44:56.634Z,13.53
2018-06-18T18:47:27.338Z,12.67
2018-06-18T18:49:58.234Z,10.60
2018-06-18T18:52:29.278Z,12.67
2018-06-18T18:55:36.852Z,11.53
2018-06-18T18:58:19.882Z,12.97
2018-06-18T19:00:51.117Z,13.03
2018-06-18T19:03:29.642Z,10.83
2018-06-18T19:06:00.428Z,14.37
2018-06-18T19:08:33.736Z,10.30
2018-06-18T19:11:05.223Z,12.73
2018-06-18T19:13:37.226Z,12.53
2018-06-18T19:16:09.057Z,11.70
2018-06-18T19:18:41.692Z,12.20
2018-06-18T19:21:12.478Z,10.73
2018-06-18T19:23:43.138Z,9.57
2018-06-18T19:26:13.588Z,10.50
2018-06-18T19:28:47.035Z,11.73
2018-06-18T19:31:21.273Z,13.43
2018-06-18T19:34:27.326Z,13.60
2018-06-18T19:36:58.579Z,14.67
2018-06-18T19:39:37.885Z,18.40
2018-06-18T19:42:08.925Z,17.60
2018-06-18T19:44:39.525Z,14.80
2018-06-18T19:47:29.754Z,16.07
2018-06-18T19:50:00.374Z,14.90
2018-06-18T19:52:31.234Z,17.87
2018-06-18T19:55:04.619Z,16.40
2018-06-18T19:57:35.266Z,16.60
2018-06-18T20:00:06.462Z,19.83
2018-06-18T20:02:37.164Z,23.20
2018-06-18T20:05:12.835Z,19.07
2018-06-18T20:08:07.470Z,18.20
2018-06-18T20:10:38.278Z,18.47
2018-06-18T20:13:09.210Z,17.97
2018-06-18T20:15:39.664Z,20.57
2018-06-18T20:18:10.333Z,17.27
2018-06-18T20:20:40.970Z,16.37
2018-06-18T20:23:15.452Z,18.00
2018-06-18T20:26:07.594Z,14.30
2018-06-18T20:28:45.579Z,15.73
2018-06-18T20:31:16.008Z,16.97
2018-06-18T20:33:51.157Z,14.80
2018-06-18T20:36:22.638Z,15.83
2018-06-18T20:38:53.472Z,19.33
2018-06-18T20:41:24.322Z,16.17
2018-06-18T20:44:07.770Z,14.93
2018-06-18T20:46:39.113Z,16.73
2018-06-18T20:49:11.247Z,15.20
2018-06-18T20:51:42.487Z,18.90
2018-06-18T20:54:13.395Z,15.73
2018-06-18T20:56:44.118Z,21.63
2018-06-18T20:59:15.161Z,14.70
2018-06-18T21:01:45.789Z,16.83
2018-06-18T21:04:16.478Z,14.80
2018-06-18T21:06:47.462Z,13.27
2018-06-18T21:09:17.905Z,13.73
2018-06-18T21:11:48.506Z,15.50
2018-06-18T21:14:19.183Z,12.33
2018-06-18T21:16:50.035Z,13.37
2018-06-18T21:19:20.719Z,13.80
2018-06-18T21:21:51.148Z,16.00
2018-06-18T21:24:21.978Z,17.93
2018-06-18T21:26:52.701Z,19.50
2018-06-18T21:29:23.169Z,14.73
2018-06-18T21:31:54.310Z,17.30
2018-06-18T21:34:25.187Z,15.23
2018-06-18T21:36:55.493Z,16.63
2018-06-18T21:39:25.984Z,20.33
2018-06-18T21:41:58.022Z,14.10
2018-06-18T21:44:33.113Z,14.80
2018-06-18T21:47:03.970Z,20.57
2018-06-18T21:49:35.786Z,17.67
2018-06-18T21:52:06.821Z,16.53
2018-06-18T21:54:37.852Z,23.10
2018-06-18T21:57:08.323Z,16.37
2018-06-18T21:59:39.283Z,18.83
2018-06-18T22:02:09.869Z,13.97
2018-06-18T22:04:40.546Z,22.43
2018-06-18T22:07:11.163Z,22.97
2018-06-18T22:09:41.770Z,16.20
2018-06-18T22:12:12.570Z,17.17
2018-06-18T22:14:43.622Z,15.97
2018-06-18T22:17:14.325Z,16.93
2018-06-18T22:19:45.198Z,16.80
2018-06-18T22:22:15.750Z,11.67
2018-06-18T22:24:47.246Z,14.33
2018-06-18T22:27:17.899Z,17.97
2018-06-18T22:29:48.806Z,14.77
2018-06-18T22:32:19.659Z,18.47
2018-06-18T22:34:50.798Z,19.33
2018-06-18T22:37:21.569Z,18.60
2018-06-18T22:39:52.489Z,15.40
2018-06-18T22:42:23.537Z,15.03
2018-06-18T22:44:54.351Z,17.40
2018-06-18T22:47:24.875Z,22.27
2018-06-18T22:49:55.750Z,17.30
2018-06-18T22:52:26.410Z,17.00
2018-06-18T22:54:57.258Z,17.20
2018-06-18T22:57:27.726Z,17.97
2018-06-18T22:59:58.439Z,18.83
2018-06-18T23:02:31.268Z,17.87
2018-06-18T23:05:01.879Z,18.87
2018-06-18T23:07:33.224Z,18.97
2018-06-18T23:10:03.947Z,20.47
2018-06-18T23:12:38.783Z,18.87
2018-06-18T23:15:10.390Z,15.23
2018-06-18T23:17:41.620Z,15.23
2018-06-18T23:20:12.308Z,20.03
2018-06-18T23:22:43.622Z,18.57
2018-06-18T23:25:14.130Z,16.90
2018-06-18T23:27:44.683Z,16.80
2018-06-18T23:30:15.034Z,19.63
2018-06-18T23:32:45.902Z,15.03
2018-06-18T23:35:16.350Z,23.17
2018-06-18T23:37:47.395Z,16.97
2018-06-18T23:40:17.881Z,18.47
2018-06-18T23:42:48.326Z,22.53
2018-06-18T23:45:19.690Z,16.90
2018-06-18T23:47:50.107Z,22.00
2018-06-18T23:50:20.711Z,19.07
2018-06-18T23:52:51.417Z,20.30
2018-06-18T23:55:22.205Z,18.30
2018-06-18T23:57:52.513Z,18.93
